createdAt,value
2017-11-18T00:00:49.658Z,16.37
2017-11-18T00:03:17.971Z,17.87
2017-11-18T00:05:45.498Z,20.77
2017-11-18T00:08:13.745Z,22.95
2017-11-18T00:10:41.245Z,25.27
2017-11-18T00:13:08.733Z,18.25
2017-11-18T00:15:36.235Z,21.52
2017-11-18T00:18:03.722Z,19.75
2017-11-18T00:20:31.267Z,20.92
2017-11-18T00:22:58.802Z,21.00
2017-11-18T00:25:26.306Z,24.12
2017-11-18T00:27:53.793Z,24.45
2017-11-18T00:30:21.285Z,24.83
2017-11-18T00:32:49.545Z,24.55
2017-11-18T00:35:17.059Z,27.40
2017-11-18T00:37:44.598Z,21.55
2017-11-18T00:40:12.149Z,21.00
2017-11-18T00:42:39.684Z,23.58
2017-11-18T00:45:07.201Z,21.23
2017-11-18T00:47:34.692Z,22.85
2017-11-18T00:50:02.190Z,23.08
2017-11-18T00:52:29.744Z,25.17
2017-11-18T00:54:58.012Z,25.88
2017-11-18T00:57:26.276Z,23.12
2017-11-18T00:59:53.860Z,24.20
2017-11-18T01:02:21.413Z,24.87
2017-11-18T01:04:49.672Z,24.92
2017-11-18T01:07:17.146Z,26.58
2017-11-18T01:09:45.405Z,22.90
2017-11-18T01:12:12.900Z,24.63
2017-11-18T01:14:40.400Z,24.52
2017-11-18T01:17:07.906Z,24.33
2017-11-18T01:19:35.412Z,27.13
2017-11-18T01:22:02.913Z,21.17
2017-11-18T01:24:30.486Z,24.48
2017-11-18T01:26:57.993Z,27.33
2017-11-18T01:29:25.482Z,26.02
2017-11-18T01:31:53.771Z,24.23
2017-11-18T01:34:22.017Z,24.20
2017-11-18T01:36:49.517Z,24.95
2017-11-18T01:39:17.072Z,28.08
2017-11-18T01:41:44.617Z,27.85
2017-11-18T01:44:12.927Z,24.55
2017-11-18T01:46:40.459Z,30.15
2017-11-18T01:49:08.721Z,25.17
2017-11-18T01:51:36.984Z,24.25
2017-11-18T01:54:04.567Z,26.23
2017-11-18T01:56:32.817Z,26.62
2017-11-18T01:59:00.317Z,26.73
2017-11-18T02:01:27.852Z,26.40
2017-11-18T02:03:56.136Z,26.95
2017-11-18T02:06:23.696Z,28.17
2017-11-18T02:08:52.103Z,25.85
2017-11-18T02:11:19.592Z,28.00
2017-11-18T02:13:47.076Z,29.98
2017-11-18T02:16:15.342Z,26.98
2017-11-18T02:18:42.829Z,25.15
2017-11-18T02:21:10.336Z,28.87
2017-11-18T02:23:37.825Z,28.87
2017-11-18T02:26:05.326Z,28.98
2017-11-18T02:28:32.813Z,30.10
2017-11-18T02:31:00.318Z,27.48
2017-11-18T02:33:27.863Z,27.23
2017-11-18T02:35:55.366Z,32.60
2017-11-18T02:38:22.889Z,30.35
2017-11-18T02:40:50.446Z,31.00
2017-11-18T02:43:18.701Z,28.55
2017-11-18T02:45:46.284Z,31.48
2017-11-18T02:48:14.561Z,31.67
2017-11-18T02:50:42.813Z,30.95
2017-11-18T02:53:10.316Z,33.88
2017-11-18T02:55:37.869Z,30.40
2017-11-18T02:58:06.324Z,31.80
2017-11-18T03:00:34.713Z,30.83
2017-11-18T03:03:03.021Z,32.35
2017-11-18T03:05:30.540Z,33.60
2017-11-18T03:07:58.808Z,29.40
2017-11-18T03:10:26.383Z,35.05
2017-11-18T03:12:53.943Z,29.87
2017-11-18T03:15:22.229Z,33.55
2017-11-18T03:17:49.729Z,30.75
2017-11-18T03:20:18.131Z,34.25
2017-11-18T03:22:45.711Z,30.23
2017-11-18T03:25:13.998Z,31.00
2017-11-18T03:27:42.254Z,39.42
2017-11-18T03:30:10.538Z,35.15
2017-11-18T03:32:38.825Z,36.90
2017-11-18T03:35:07.101Z,30.77
2017-11-18T03:37:34.663Z,33.58
2017-11-18T03:40:02.912Z,34.83
2017-11-18T03:42:30.393Z,31.27
2017-11-18T03:44:58.658Z,34.28
2017-11-18T03:47:26.910Z,36.75
2017-11-18T03:49:54.499Z,33.13
2017-11-18T03:52:22.755Z,37.20
2017-11-18T03:54:50.342Z,36.78
2017-11-18T03:57:17.837Z,36.42
2017-11-18T03:59:45.317Z,33.40
2017-11-18T04:02:12.821Z,34.63
2017-11-18T04:04:40.316Z,32.78
2017-11-18T04:07:07.821Z,36.80
2017-11-18T04:09:36.112Z,36.50
2017-11-18T04:12:03.592Z,34.83
2017-11-18T04:14:31.114Z,36.42
2017-11-18T04:16:59.360Z,37.72
2017-11-18T04:19:26.938Z,39.13
2017-11-18T04:21:54.430Z,35.28
2017-11-18T04:24:21.918Z,36.88
2017-11-18T04:26:49.418Z,39.40
2017-11-18T04:29:18.198Z,35.83
2017-11-18T04:31:46.479Z,40.25
2017-11-18T04:34:13.977Z,39.28
2017-11-18T04:36:41.485Z,41.22
2017-11-18T04:39:09.074Z,37.03
2017-11-18T04:41:37.330Z,34.97
2017-11-18T04:44:04.830Z,37.28
2017-11-18T04:46:32.370Z,40.45
2017-11-18T04:48:59.922Z,33.38
2017-11-18T04:51:27.481Z,38.38
2017-11-18T04:53:55.729Z,34.70
2017-11-18T04:56:23.224Z,34.60
2017-11-18T04:58:50.798Z,34.92
2017-11-18T05:01:18.284Z,36.63
2017-11-18T05:03:45.803Z,36.38
2017-11-18T05:06:13.344Z,38.60
2017-11-18T05:08:41.615Z,51.83
2017-11-18T05:11:09.904Z,41.55
2017-11-18T05:13:38.206Z,40.70
2017-11-18T05:16:05.708Z,38.55
2017-11-18T05:18:33.197Z,35.50
2017-11-18T05:21:04.853Z,42.20
2017-11-18T05:23:33.113Z,36.83
2017-11-18T05:26:01.377Z,40.50
2017-11-18T05:28:28.965Z,42.40
2017-11-18T05:30:57.225Z,40.15
2017-11-18T05:33:24.733Z,45.10
2017-11-18T05:35:52.222Z,42.88
2017-11-18T05:38:19.713Z,40.20
2017-11-18T05:40:47.985Z,40.55
2017-11-18T05:43:16.242Z,45.10
2017-11-18T05:45:43.757Z,53.60
2017-11-18T05:48:11.288Z,43.15
2017-11-18T05:50:38.867Z,43.05
2017-11-18T05:53:06.364Z,42.90
2017-11-18T05:55:33.906Z,44.60
2017-11-18T05:58:01.423Z,41.40
2017-11-18T06:00:28.914Z,46.22
2017-11-18T06:02:56.402Z,44.20
2017-11-18T06:05:23.907Z,41.85
2017-11-18T06:07:51.445Z,44.47
2017-11-18T06:10:19.730Z,44.80
2017-11-18T06:12:48.005Z,42.80
2017-11-18T06:15:16.255Z,42.92
2017-11-18T06:17:43.758Z,46.13
2017-11-18T06:20:11.249Z,45.00
2017-11-18T06:22:38.780Z,48.78
2017-11-18T06:25:06.319Z,41.05
2017-11-18T06:27:33.848Z,37.92
2017-11-18T06:30:01.421Z,41.83
2017-11-18T06:32:29.673Z,40.95
2017-11-18T06:34:57.197Z,43.40
2017-11-18T06:37:24.739Z,36.67
2017-11-18T06:39:52.236Z,44.67
2017-11-18T06:42:19.740Z,39.25
2017-11-18T06:44:48.000Z,39.55
2017-11-18T06:47:16.279Z,42.67
2017-11-18T06:49:44.555Z,42.75
2017-11-18T06:52:12.816Z,40.22
2017-11-18T06:54:40.314Z,39.85
2017-11-18T06:57:07.863Z,40.03
2017-11-18T06:59:36.845Z,40.90
2017-11-18T07:02:05.146Z,39.30
2017-11-18T07:04:32.629Z,39.85
2017-11-18T07:07:00.138Z,40.12
2017-11-18T07:09:28.429Z,39.95
2017-11-18T07:11:55.942Z,44.53
2017-11-18T07:14:23.547Z,44.25
2017-11-18T07:16:51.801Z,44.10
2017-11-18T07:19:19.384Z,42.50
2017-11-18T07:21:46.953Z,36.47
2017-11-18T07:24:14.476Z,44.25
2017-11-18T07:26:41.962Z,43.75
2017-11-18T07:29:09.516Z,37.38
2017-11-18T07:31:37.030Z,38.95
2017-11-18T07:34:04.644Z,45.40
2017-11-18T07:36:32.171Z,41.53
2017-11-18T07:39:00.490Z,41.08
2017-11-18T07:41:28.026Z,41.55
2017-11-18T07:43:55.544Z,40.30
2017-11-18T07:46:23.073Z,42.15
2017-11-18T07:48:50.638Z,36.88
2017-11-18T07:51:18.130Z,35.97
2017-11-18T07:53:45.626Z,33.92
2017-11-18T07:56:13.334Z,37.35
2017-11-18T07:58:40.821Z,38.17
2017-11-18T08:01:08.321Z,38.20
2017-11-18T08:03:35.814Z,39.28
2017-11-18T08:06:03.316Z,38.35
2017-11-18T08:08:31.564Z,36.17
2017-11-18T08:10:59.081Z,36.28
2017-11-18T08:13:26.595Z,37.78
2017-11-18T08:15:54.852Z,39.60
2017-11-18T08:18:22.438Z,39.65
2017-11-18T08:20:50.719Z,36.20
2017-11-18T08:23:18.284Z,35.40
2017-11-18T08:25:45.836Z,34.65
2017-11-18T08:28:13.324Z,36.42
2017-11-18T08:30:40.818Z,34.72
2017-11-18T08:33:08.850Z,34.35
2017-11-18T08:35:36.347Z,38.40
2017-11-18T08:38:03.860Z,38.80
2017-11-18T08:40:31.397Z,38.55
2017-11-18T08:42:59.675Z,38.73
2017-11-18T08:45:27.943Z,42.10
2017-11-18T08:47:56.206Z,38.10
2017-11-18T08:50:24.172Z,39.60
2017-11-18T08:52:51.861Z,41.40
2017-11-18T08:55:19.431Z,37.58
2017-11-18T08:57:46.968Z,39.40
2017-11-18T09:00:16.903Z,38.37
2017-11-18T09:02:44.411Z,42.40
2017-11-18T09:05:12.677Z,43.40
2017-11-18T09:07:40.168Z,37.50
2017-11-18T09:10:08.433Z,37.83
2017-11-18T09:12:35.921Z,40.35
2017-11-18T09:15:03.495Z,38.03
2017-11-18T09:17:31.018Z,39.40
2017-11-18T09:20:00.058Z,45.10
2017-11-18T09:22:27.595Z,40.27
2017-11-18T09:24:55.084Z,40.27
2017-11-18T09:27:22.623Z,38.80
2017-11-18T09:29:50.108Z,38.23
2017-11-18T09:32:17.594Z,37.87
2017-11-18T09:34:45.177Z,38.20
2017-11-18T09:37:13.429Z,34.40
2017-11-18T09:39:40.960Z,36.20
2017-11-18T09:42:08.476Z,34.78
2017-11-18T09:44:36.733Z,36.70
2017-11-18T09:47:05.008Z,36.90
2017-11-18T09:49:32.508Z,38.93
2017-11-18T09:52:00.016Z,38.73
2017-11-18T09:54:27.608Z,32.43
2017-11-18T09:56:55.893Z,30.93
2017-11-18T09:59:23.536Z,31.93
2017-11-18T10:01:51.786Z,31.80
2017-11-18T10:04:20.914Z,31.00
2017-11-18T10:06:49.200Z,31.90
2017-11-18T10:09:16.748Z,30.97
2017-11-18T10:11:45.018Z,30.43
2017-11-18T10:14:13.261Z,30.00
2017-11-18T10:16:40.890Z,32.83
2017-11-18T10:19:08.380Z,29.90
2017-11-18T10:21:35.876Z,33.65
2017-11-18T10:24:04.814Z,30.83
2017-11-18T10:26:32.314Z,32.20
2017-11-18T10:29:00.601Z,32.40
2017-11-18T10:31:28.859Z,31.13
2017-11-18T10:33:56.350Z,29.47
2017-11-18T10:36:23.885Z,29.13
2017-11-18T10:38:51.462Z,34.40
2017-11-18T10:41:18.964Z,30.33
2017-11-18T10:43:46.481Z,30.80
2017-11-18T10:46:14.012Z,36.00
2017-11-18T10:48:42.423Z,47.47
2017-11-18T10:51:10.017Z,28.23
2017-11-18T10:53:37.544Z,28.37
2017-11-18T10:56:05.046Z,24.70
2017-11-18T10:58:32.540Z,24.87
2017-11-18T11:01:00.834Z,26.57
2017-11-18T11:03:29.776Z,28.47
2017-11-18T11:05:57.304Z,24.33
2017-11-18T11:08:24.870Z,24.17
2017-11-18T11:10:52.378Z,25.10
2017-11-18T11:13:19.878Z,25.67
2017-11-18T11:15:47.385Z,24.77
2017-11-18T11:18:14.894Z,24.33
2017-11-18T11:20:42.399Z,21.93
2017-11-18T11:23:09.885Z,20.80
2017-11-18T11:25:38.150Z,19.40
2017-11-18T11:28:06.412Z,18.63
2017-11-18T11:30:33.921Z,16.20
2017-11-18T11:33:01.467Z,16.93
2017-11-18T11:35:28.964Z,18.03
2017-11-18T11:37:56.514Z,16.40
2017-11-18T11:40:23.995Z,16.17
2017-11-18T11:42:51.522Z,16.37
2017-11-18T11:45:19.010Z,16.37
2017-11-18T11:47:46.520Z,14.00
2017-11-18T11:50:15.035Z,15.67
2017-11-18T11:52:42.520Z,13.53
2017-11-18T11:55:10.029Z,12.43
2017-11-18T11:57:37.499Z,10.50
2017-11-18T12:00:04.994Z,10.77
2017-11-18T12:02:32.496Z,10.87
2017-11-18T12:04:59.968Z,10.67
2017-11-18T12:07:27.497Z,9.87
2017-11-18T12:09:55.840Z,8.73
2017-11-18T12:12:23.336Z,10.83
2017-11-18T12:14:50.834Z,10.90
2017-11-18T12:17:18.565Z,8.37
2017-11-18T12:19:46.070Z,9.03
2017-11-18T12:22:13.557Z,8.20
2017-11-18T12:24:41.818Z,7.77
2017-11-18T12:27:09.308Z,8.40
2017-11-18T12:29:36.798Z,9.43
2017-11-18T12:32:04.313Z,7.67
2017-11-18T12:34:32.576Z,9.60
2017-11-18T12:37:00.838Z,8.63
2017-11-18T12:39:28.407Z,8.77
2017-11-18T12:41:56.661Z,10.37
2017-11-18T12:44:24.161Z,9.43
2017-11-18T12:46:51.660Z,9.27
2017-11-18T12:49:19.201Z,8.37
2017-11-18T12:51:46.705Z,10.00
2017-11-18T12:54:14.195Z,9.33
2017-11-18T12:56:41.713Z,9.83
2017-11-18T12:59:09.247Z,8.27
2017-11-18T13:01:36.745Z,10.17
2017-11-18T13:04:04.233Z,7.60
2017-11-18T13:06:31.716Z,10.57
2017-11-18T13:08:59.486Z,9.97
2017-11-18T13:11:26.973Z,8.83
2017-11-18T13:13:54.450Z,9.63
2017-11-18T13:16:22.703Z,8.50
2017-11-18T13:18:50.185Z,9.23
2017-11-18T13:21:18.463Z,11.83
2017-11-18T13:23:45.976Z,9.47
2017-11-18T13:26:13.535Z,10.70
2017-11-18T13:28:41.045Z,9.70
2017-11-18T13:31:08.541Z,8.73
2017-11-18T13:33:36.075Z,15.80
2017-11-18T13:36:03.577Z,11.70
2017-11-18T13:38:31.066Z,11.43
2017-11-18T13:40:59.398Z,10.60
2017-11-18T13:43:26.876Z,9.77
2017-11-18T13:45:54.367Z,10.83
2017-11-18T13:48:22.621Z,14.53
2017-11-18T13:50:50.146Z,11.60
2017-11-18T13:53:17.648Z,9.83
2017-11-18T13:55:45.904Z,10.40
2017-11-18T13:58:13.422Z,12.20
2017-11-18T14:00:40.910Z,9.90
2017-11-18T14:03:08.413Z,10.53
2017-11-18T14:05:35.908Z,10.07
2017-11-18T14:08:03.392Z,10.73
2017-11-18T14:10:30.904Z,9.43
2017-11-18T14:12:58.393Z,9.97
2017-11-18T14:15:26.684Z,12.13
2017-11-18T14:17:54.186Z,14.17
2017-11-18T14:20:21.714Z,11.03
2017-11-18T14:22:49.229Z,13.13
2017-11-18T14:25:16.699Z,10.60
2017-11-18T14:27:44.185Z,11.30
2017-11-18T14:30:11.672Z,10.10
2017-11-18T14:32:39.936Z,11.10
2017-11-18T14:35:07.448Z,10.57
2017-11-18T14:37:34.950Z,9.57
2017-11-18T14:40:03.211Z,9.80
2017-11-18T14:42:30.785Z,10.10
2017-11-18T14:44:59.081Z,15.40
2017-11-18T14:47:26.615Z,11.07
2017-11-18T14:49:54.901Z,11.10
2017-11-18T14:52:23.154Z,11.70
2017-11-18T14:54:50.689Z,11.43
2017-11-18T14:57:18.164Z,10.87
2017-11-18T14:59:45.658Z,11.77
2017-11-18T15:02:13.905Z,12.23
2017-11-18T15:04:41.446Z,11.03
2017-11-18T15:07:08.937Z,10.87
2017-11-18T15:09:37.185Z,11.33
2017-11-18T15:12:04.679Z,10.53
2017-11-18T15:17:47.665Z,12.03
2017-11-18T15:20:20.733Z,10.73
2017-11-18T15:22:53.869Z,12.57
2017-11-18T15:25:26.963Z,13.30
2017-11-18T15:31:04.499Z,11.63
2017-11-18T15:33:38.344Z,10.40
2017-11-18T15:36:20.758Z,11.33
2017-11-18T15:38:58.152Z,8.67
2017-11-18T15:41:26.405Z,8.87
2017-11-18T15:47:05.916Z,9.47
2017-11-18T15:49:39.252Z,11.57
2017-11-18T15:52:08.484Z,7.67
2017-11-18T15:58:03.799Z,8.60
2017-11-18T16:00:42.067Z,7.33
2017-11-18T16:03:20.201Z,6.93
2017-11-18T16:05:47.712Z,8.70
2017-11-18T16:08:15.211Z,7.77
2017-11-18T16:10:42.690Z,9.27
2017-11-18T16:13:10.177Z,8.93
2017-11-18T16:15:37.673Z,8.67
2017-11-18T16:18:05.933Z,7.57
2017-11-18T16:20:33.418Z,9.43
2017-11-18T16:23:01.686Z,7.60
2017-11-18T16:25:29.211Z,9.23
2017-11-18T16:27:56.691Z,8.13
2017-11-18T16:30:24.978Z,8.27
2017-11-18T16:32:53.249Z,7.53
2017-11-18T16:35:21.535Z,7.97
2017-11-18T16:37:49.338Z,8.10
2017-11-18T16:40:16.812Z,7.57
2017-11-18T16:42:44.311Z,10.10
2017-11-18T16:45:11.798Z,8.03
2017-11-18T16:47:39.333Z,7.83
2017-11-18T16:50:06.876Z,6.93
2017-11-18T16:52:34.353Z,8.63
2017-11-18T16:55:01.904Z,7.53
2017-11-18T16:57:30.149Z,7.20
2017-11-18T16:59:57.624Z,8.00
2017-11-18T17:02:25.105Z,8.87
2017-11-18T17:04:52.612Z,8.97
2017-11-18T17:07:20.189Z,9.07
2017-11-18T17:09:47.772Z,8.00
2017-11-18T17:12:15.264Z,8.73
2017-11-18T17:14:42.758Z,8.40
2017-11-18T17:17:10.244Z,8.13
2017-11-18T17:19:38.510Z,8.70
2017-11-18T17:22:07.001Z,9.07
2017-11-18T17:24:35.247Z,7.40
2017-11-18T17:27:02.748Z,7.90
2017-11-18T17:29:30.232Z,8.87
2017-11-18T17:31:57.749Z,8.77
2017-11-18T17:34:26.043Z,9.10
2017-11-18T17:36:53.566Z,7.73
2017-11-18T17:39:21.131Z,9.47
2017-11-18T17:41:48.933Z,8.80
2017-11-18T17:44:16.441Z,7.77
2017-11-18T17:46:43.925Z,8.77
2017-11-18T17:49:12.181Z,8.17
2017-11-18T17:51:39.659Z,9.53
2017-11-18T17:54:08.036Z,10.17
2017-11-18T17:56:35.546Z,7.60
2017-11-18T17:59:03.034Z,8.37
2017-11-18T18:01:30.577Z,9.97
2017-11-18T18:03:58.055Z,8.40
2017-11-18T18:06:25.535Z,8.70
2017-11-18T18:08:53.800Z,9.87
2017-11-18T18:11:22.075Z,11.50
2017-11-18T18:13:50.505Z,10.02
2017-11-18T18:18:50.980Z,8.85
2017-11-18T18:21:18.475Z,8.20
2017-11-18T18:23:45.970Z,8.97
2017-11-18T18:26:13.500Z,8.83
2017-11-18T18:28:41.069Z,9.33
2017-11-18T18:31:08.573Z,8.67
2017-11-18T18:33:36.320Z,8.57
2017-11-18T18:36:03.829Z,11.13
2017-11-18T18:38:31.331Z,8.80
2017-11-18T18:40:58.836Z,9.40
2017-11-18T18:43:27.301Z,9.73
2017-11-18T18:45:54.797Z,9.17
2017-11-18T18:48:23.106Z,10.17
2017-11-18T18:50:50.643Z,9.90
2017-11-18T18:53:18.137Z,10.80
2017-11-18T18:55:45.689Z,11.00
2017-11-18T18:58:13.197Z,11.20
2017-11-18T19:00:40.684Z,10.80
2017-11-18T19:03:08.170Z,10.93
2017-11-18T19:05:35.666Z,10.43
2017-11-18T19:08:03.941Z,11.07
2017-11-18T19:10:32.391Z,10.63
2017-11-18T19:12:59.864Z,11.30
2017-11-18T19:15:28.120Z,12.23
2017-11-18T19:17:55.619Z,11.20
2017-11-18T19:20:23.175Z,10.60
2017-11-18T19:22:50.721Z,11.67
2017-11-18T19:25:18.992Z,10.20
2017-11-18T19:27:47.277Z,11.73
2017-11-18T19:30:15.551Z,11.83
2017-11-18T19:32:43.045Z,12.77
2017-11-18T19:35:10.607Z,10.60
2017-11-18T19:37:38.094Z,14.57
2017-11-18T19:40:05.593Z,12.07
2017-11-18T19:42:33.084Z,13.20
2017-11-18T19:45:00.564Z,11.17
2017-11-18T19:47:28.066Z,11.97
2017-11-18T19:49:56.324Z,12.33
2017-11-18T19:52:23.799Z,10.40
2017-11-18T19:54:52.065Z,10.27
2017-11-18T19:57:20.349Z,10.57
2017-11-18T19:59:47.840Z,9.50
2017-11-18T20:02:15.320Z,12.70
2017-11-18T20:04:42.816Z,10.93
2017-11-18T20:07:10.314Z,9.43
2017-11-18T20:09:37.801Z,10.43
2017-11-18T20:12:05.333Z,12.63
2017-11-18T20:14:32.808Z,11.60
2017-11-18T20:17:00.286Z,9.97
2017-11-18T20:19:28.570Z,12.13
2017-11-18T20:21:56.818Z,9.77
2017-11-18T20:24:24.314Z,14.53
2017-11-18T20:26:52.560Z,10.20
2017-11-18T20:29:20.036Z,11.67
2017-11-18T20:31:47.568Z,11.27
2017-11-18T20:34:15.076Z,11.00
2017-11-18T20:36:43.387Z,10.90
2017-11-18T20:39:10.879Z,11.73
2017-11-18T20:41:38.374Z,11.93
2017-11-18T20:44:05.864Z,9.83
2017-11-18T20:46:33.345Z,9.30
2017-11-18T20:49:00.949Z,9.43
2017-11-18T20:51:28.440Z,10.67
2017-11-18T20:53:55.949Z,9.87
2017-11-18T20:56:24.273Z,9.60
2017-11-18T20:58:52.092Z,10.83
2017-11-18T21:01:21.713Z,11.37
2017-11-18T21:03:49.218Z,12.77
2017-11-18T21:06:18.187Z,13.00
2017-11-18T21:08:45.681Z,11.47
2017-11-18T21:11:13.203Z,11.73
2017-11-18T21:13:40.706Z,13.37
2017-11-18T21:16:08.216Z,12.20
2017-11-18T21:18:35.737Z,10.30
2017-11-18T21:21:04.009Z,11.20
2017-11-18T21:23:32.284Z,11.17
2017-11-18T21:26:00.569Z,10.87
2017-11-18T21:28:28.820Z,10.20
2017-11-18T21:30:56.483Z,9.87
2017-11-18T21:33:23.980Z,11.73
2017-11-18T21:35:51.465Z,9.97
2017-11-18T21:38:18.987Z,11.23
2017-11-18T21:40:47.270Z,10.80
2017-11-18T21:43:14.763Z,10.03
2017-11-18T21:45:42.280Z,9.30
2017-11-18T21:48:10.540Z,9.77
2017-11-18T21:50:38.815Z,8.47
2017-11-18T21:53:07.103Z,11.20
2017-11-18T21:55:35.395Z,9.40
2017-11-18T21:58:02.954Z,9.30
2017-11-18T22:00:30.460Z,8.57
2017-11-18T22:02:57.958Z,11.77
2017-11-18T22:05:26.236Z,9.90
2017-11-18T22:07:54.541Z,13.10
2017-11-18T22:10:22.100Z,9.40
2017-11-18T22:12:49.656Z,9.37
2017-11-18T22:15:17.325Z,8.43
2017-11-18T22:17:44.953Z,8.57
2017-11-18T22:20:13.240Z,9.93
2017-11-18T22:22:40.743Z,8.47
2017-11-18T22:25:08.278Z,8.40
2017-11-18T22:27:35.804Z,7.40
2017-11-18T22:30:04.062Z,8.10
2017-11-18T22:32:31.547Z,9.30
2017-11-18T22:34:59.056Z,7.20
2017-11-18T22:37:26.536Z,8.00
2017-11-18T22:39:54.048Z,9.13
2017-11-18T22:42:21.533Z,6.97
2017-11-18T22:44:49.038Z,9.63
2017-11-18T22:47:17.309Z,10.07
2017-11-18T22:49:45.571Z,7.90
2017-11-18T22:52:13.859Z,8.30
2017-11-18T22:54:41.395Z,7.83
2017-11-18T22:57:09.669Z,6.77
2017-11-18T22:59:37.157Z,8.17
2017-11-18T23:02:05.401Z,7.47
2017-11-18T23:04:32.923Z,9.17
2017-11-18T23:07:00.424Z,8.13
2017-11-18T23:09:27.901Z,7.10
2017-11-18T23:11:55.404Z,7.67
2017-11-18T23:14:22.988Z,9.17
2017-11-18T23:16:50.601Z,6.93
2017-11-18T23:19:18.088Z,7.33
2017-11-18T23:21:45.565Z,7.83
2017-11-18T23:24:13.075Z,7.50
2017-11-18T23:26:40.647Z,7.00
2017-11-18T23:29:08.150Z,9.50
2017-11-18T23:31:35.679Z,7.97
2017-11-18T23:34:03.158Z,8.30
2017-11-18T23:36:30.700Z,6.60
2017-11-18T23:38:58.197Z,7.03
2017-11-18T23:41:26.510Z,8.53
2017-11-18T23:43:54.051Z,7.33
2017-11-18T23:46:21.560Z,8.10
2017-11-18T23:48:49.069Z,8.57
2017-11-18T23:51:16.568Z,8.17
2017-11-18T23:53:44.064Z,7.50
2017-11-18T23:56:12.357Z,8.77
2017-11-18T23:58:39.866Z,8.13
